Time;durP1;ratioP1;P1;durP2;ratioP2;P2;SDS_P1;SDS_P2;PMS_P1;PMS_P2;Temp;Humidity;BMP_temperature;BMP_pressure;BME280_temperature;BME280_humidity;BME280_pressure;Samples;Min_cycle;Max_cycle;Signal;HPM_P1;HPM_P2
2021/06/10 00:02:54;;;;;;;10.90;4.85;;;;;;;;;;6198200;28;20184;-68
2021/06/10 00:05:57;;;;;;;8.43;4.40;;;;;;;;;;6202064;28;20508;-68
2021/06/10 00:08:58;;;;;;;5.00;3.53;;;;;;;;;;6201873;28;20046;-68
2021/06/10 00:11:59;;;;;;;5.90;3.58;;;;;;;;;;6202079;28;20534;-68
2021/06/10 00:15:00;;;;;;;6.45;3.55;;;;;;;;;;6201815;28;20174;-68
2021/06/10 00:18:02;;;;;;;3.85;3.10;;;;;;;;;;6196202;28;20085;-67
2021/06/10 00:21:05;;;;;;;4.15;2.83;;;;;;;;;;6201519;28;20121;-68
2021/06/10 00:24:08;;;;;;;2.67;2.20;;;;;;;;;;6201323;28;20474;-68
2021/06/10 00:27:10;;;;;;;2.58;2.17;;;;;;;;;;6201625;28;20120;-68
2021/06/10 00:30:15;;;;;;;4.28;2.30;;;;;;;;;;6202183;28;20054;-68
2021/06/10 00:33:16;;;;;;;3.13;2.33;;;;;;;;;;6223072;28;20049;-68
2021/06/10 00:36:19;;;;;;;4.07;2.88;;;;;;;;;;6201378;28;20486;-67
2021/06/10 00:39:20;;;;;;;3.65;2.72;;;;;;;;;;6201183;28;20582;-68
2021/06/10 00:42:21;;;;;;;6.13;2.28;;;;;;;;;;6201480;28;20132;-69
2021/06/10 00:45:23;;;;;;;3.30;2.10;;;;;;;;;;6201143;28;20154;-68
2021/06/10 00:48:24;;;;;;;9.05;3.05;;;;;;;;;;6201294;28;20486;-68
2021/06/10 00:51:27;;;;;;;7.03;2.60;;;;;;;;;;6200957;28;20120;-68
2021/06/10 00:54:30;;;;;;;7.60;2.42;;;;;;;;;;6177136;28;20123;-69
2021/06/10 00:57:31;;;;;;;4.18;2.20;;;;;;;;;;6176805;28;20126;-68
2021/06/10 01:00:32;;;;;;;3.75;1.90;;;;;;;;;;6177145;28;20054;-67
2021/06/10 01:03:34;;;;;;;3.13;2.10;;;;;;;;;;6176713;28;20130;-69
2021/06/10 01:06:44;;;;;;;7.47;2.30;;;;;;;;;;6176779;28;20055;-68
2021/06/10 01:09:48;;;;;;;3.90;1.95;;;;;;;;;;6228001;23;20041;-78
2021/06/10 01:13:08;;;;;;;3.58;1.95;;;;;;;;;;6228113;28;20072;-78
2021/06/10 01:16:13;;;;;;;3.58;2.20;;;;;;;;;;6229627;28;20046;-78
2021/06/10 01:19:20;;;;;;;8.15;2.55;;;;;;;;;;6233326;28;20053;-78
2021/06/10 01:22:38;;;;;;;7.10;2.55;;;;;;;;;;6229787;28;20064;-78
2021/06/10 01:25:49;;;;;;;7.50;2.45;;;;;;;;;;6229772;28;20045;-78
2021/06/10 01:28:57;;;;;;;5.15;2.33;;;;;;;;;;6229706;28;20073;-78
2021/06/10 01:32:23;;;;;;;3.85;2.20;;;;;;;;;;6229785;28;20050;-78
2021/06/10 01:35:30;;;;;;;3.83;1.70;;;;;;;;;;6229105;28;20053;-78
2021/06/10 01:38:49;;;;;;;7.22;1.90;;;;;;;;;;6234228;28;20141;-79
2021/06/10 01:41:57;;;;;;;2.80;1.85;;;;;;;;;;6228129;28;20058;-77
2021/06/10 01:45:02;;;;;;;3.65;1.70;;;;;;;;;;6228068;28;20045;-78
2021/06/10 01:48:06;;;;;;;2.75;1.83;;;;;;;;;;6228504;28;20420;-78
2021/06/10 01:51:11;;;;;;;4.10;2.20;;;;;;;;;;6227342;28;20046;-78
2021/06/10 01:54:22;;;;;;;5.85;2.35;;;;;;;;;;6227783;28;20073;-81
2021/06/10 01:57:32;;;;;;;2.63;2.05;;;;;;;;;;6223679;28;20049;-79
2021/06/10 02:00:52;;;;;;;2.22;1.80;;;;;;;;;;6237845;28;20050;-77
2021/06/10 02:03:55;;;;;;;4.22;2.30;;;;;;;;;;6229742;28;20046;-77
2021/06/10 02:07:09;;;;;;;2.47;2.10;;;;;;;;;;6228388;28;20490;-78
2021/06/10 02:10:20;;;;;;;3.50;2.50;;;;;;;;;;6228201;28;20509;-78
2021/06/10 02:13:23;;;;;;;6.50;2.70;;;;;;;;;;6227699;28;20502;-77
2021/06/10 02:16:46;;;;;;;6.38;2.55;;;;;;;;;;6228838;28;20386;-78
2021/06/10 02:19:52;;;;;;;6.77;2.70;;;;;;;;;;6217767;28;20092;-78
2021/06/10 02:23:09;;;;;;;4.97;2.33;;;;;;;;;;6228429;28;20042;-78
2021/06/10 02:26:29;;;;;;;3.00;2.38;;;;;;;;;;6227353;28;20062;-78
2021/06/10 02:29:44;;;;;;;3.88;2.60;;;;;;;;;;6226313;28;20042;-78
2021/06/10 02:32:52;;;;;;;3.53;2.70;;;;;;;;;;6228688;28;20387;-77
2021/06/10 02:35:56;;;;;;;5.00;2.95;;;;;;;;;;6213064;28;20062;-78
2021/06/10 02:39:10;;;;;;;5.13;2.70;;;;;;;;;;6218246;28;20421;-78
2021/06/10 02:42:29;;;;;;;;;;;;;;;;;;6228200;28;20049;-78
2021/06/10 02:46:05;;;;;;;3.28;2.45;;;;;;;;;;6227675;28;19921;-78
2021/06/10 02:49:09;;;;;;;3.42;2.53;;;;;;;;;;6228704;28;20042;-77
2021/06/10 02:52:35;;;;;;;4.25;2.92;;;;;;;;;;6232379;28;20474;-78
2021/06/10 02:56:04;;;;;;;4.05;2.67;;;;;;;;;;6232699;28;20050;-78
2021/06/10 02:59:10;;;;;;;4.07;2.78;;;;;;;;;;6203260;28;20050;-78
2021/06/10 03:02:21;;;;;;;4.22;2.90;;;;;;;;;;6231581;28;20445;-78
2021/06/10 03:05:29;;;;;;;4.20;2.85;;;;;;;;;;6230967;28;20445;-78
2021/06/10 03:08:51;;;;;;;4.03;3.00;;;;;;;;;;6223395;28;20058;-78
2021/06/10 03:11:59;;;;;;;6.60;3.78;;;;;;;;;;6232562;28;20045;-78
2021/06/10 03:15:01;;;;;;;5.70;3.25;;;;;;;;;;6224262;28;20540;-77
2021/06/10 03:18:10;;;;;;;5.68;2.90;;;;;;;;;;6235676;28;20481;-78
2021/06/10 03:21:32;;;;;;;4.57;3.15;;;;;;;;;;6226883;28;20069;-78
2021/06/10 03:24:46;;;;;;;4.28;2.88;;;;;;;;;;6232017;28;20053;-81
2021/06/10 03:28:07;;;;;;;8.18;3.40;;;;;;;;;;6231852;28;20076;-77
2021/06/10 03:31:09;;;;;;;5.43;3.33;;;;;;;;;;6231314;28;20103;-78
2021/06/10 03:34:38;;;;;;;3.85;3.38;;;;;;;;;;6222423;28;20512;-78
2021/06/10 03:37:42;;;;;;;7.38;3.38;;;;;;;;;;6231194;28;20051;-78
2021/06/10 03:40:52;;;;;;;6.85;3.67;;;;;;;;;;6231610;28;20046;-78
2021/06/10 03:44:03;;;;;;;6.55;3.72;;;;;;;;;;6220747;28;20092;-78
2021/06/10 03:47:12;;;;;;;5.88;3.90;;;;;;;;;;6230175;28;20508;-77
2021/06/10 03:50:16;;;;;;;7.75;4.10;;;;;;;;;;6231054;28;20050;-78
2021/06/10 03:53:26;;;;;;;6.00;4.45;;;;;;;;;;6230102;28;20073;-77
2021/06/10 03:56:38;;;;;;;8.85;4.78;;;;;;;;;;6231442;28;20046;-81
2021/06/10 04:00:08;;;;;;;;;;;;;;;;;;;;;
2021/06/10 04:03:21;;;;;;;6.70;4.55;;;;;;;;;;6229646;28;20080;-77
2021/06/10 04:06:37;;;;;;;6.38;4.88;;;;;;;;;;6230815;28;20409;-78
2021/06/10 04:09:50;;;;;;;6.82;4.60;;;;;;;;;;6228784;28;20046;-78
2021/06/10 04:12:56;;;;;;;9.55;4.85;;;;;;;;;;6229495;28;20054;-77
2021/06/10 04:16:09;;;;;;;10.25;5.25;;;;;;;;;;6230067;28;20068;-78
2021/06/10 04:19:21;;;;;;;7.68;5.45;;;;;;;;;;6228412;28;20092;-78
2021/06/10 04:22:45;;;;;;;7.75;5.63;;;;;;;;;;6231988;28;20057;-77
2021/06/10 04:26:03;;;;;;;7.28;5.53;;;;;;;;;;6209165;28;20053;-77
2021/06/10 04:29:22;;;;;;;6.10;5.28;;;;;;;;;;6233242;28;20054;-78
2021/06/10 07:19:21;;;;;;;3.40;1.90;;;;;;;;;;6219046;28;20485;-77
2021/06/10 07:22:24;;;;;;;7.90;2.08;;;;;;;;;;6228699;28;20052;-77
2021/06/10 07:25:25;;;;;;;5.38;2.28;;;;;;;;;;6230868;28;20393;-77
2021/06/10 07:28:28;;;;;;;4.35;2.85;;;;;;;;;;6230745;28;20054;-77
2021/06/10 07:31:30;;;;;;;7.95;2.30;;;;;;;;;;6232360;28;20129;-77
2021/06/10 07:34:34;;;;;;;3.58;1.90;;;;;;;;;;6231129;28;20056;-78
2021/06/10 07:37:35;;;;;;;4.63;2.10;;;;;;;;;;6232966;28;20046;-77
2021/06/10 07:40:38;;;;;;;3.75;1.98;;;;;;;;;;6231511;28;20038;-76
2021/06/10 07:43:40;;;;;;;3.40;2.17;;;;;;;;;;6231075;28;20137;-77
2021/06/10 07:46:42;;;;;;;4.65;2.30;;;;;;;;;;6228049;28;20050;-77
2021/06/10 07:49:46;;;;;;;3.55;2.10;;;;;;;;;;6230465;28;20078;-77
2021/06/10 07:52:47;;;;;;;4.05;2.13;;;;;;;;;;6229823;28;20065;-77
2021/06/10 07:55:55;;;;;;;9.53;2.53;;;;;;;;;;6229689;28;20046;-77
2021/06/10 07:58:56;;;;;;;5.15;3.70;;;;;;;;;;6229223;28;20053;-79
2021/06/10 08:01:58;;;;;;;5.55;3.00;;;;;;;;;;6228589;28;20413;-77
2021/06/10 08:05:01;;;;;;;4.60;3.08;;;;;;;;;;6229671;28;20053;-77
2021/06/10 08:08:02;;;;;;;6.70;3.10;;;;;;;;;;6234607;28;20513;-77
2021/06/10 08:11:06;;;;;;;4.82;2.80;;;;;;;;;;6229120;28;20495;-78
2021/06/10 08:14:08;;;;;;;5.57;3.33;;;;;;;;;;6228595;28;20049;-77
2021/06/10 08:17:10;;;;;;;3.75;2.55;;;;;;;;;;6228923;28;20112;-77
2021/06/10 08:20:13;;;;;;;;;;;;;;;;;;6229382;28;20058;-77
2021/06/10 08:23:15;;;;;;;5.40;3.55;;;;;;;;;;6229075;28;19929;-77
2021/06/10 08:26:17;;;;;;;8.63;4.00;;;;;;;;;;6227939;28;20053;-77
2021/06/10 08:29:18;;;;;;;4.72;4.00;;;;;;;;;;6228688;28;20131;-77
2021/06/10 08:32:19;;;;;;;4.30;3.60;;;;;;;;;;6226714;28;20050;-77
2021/06/10 08:35:22;;;;;;;4.75;3.50;;;;;;;;;;6228133;28;20133;-79
2021/06/10 08:38:23;;;;;;;4.55;3.42;;;;;;;;;;6227952;28;20118;-77
2021/06/10 08:41:26;;;;;;;5.18;3.47;;;;;;;;;;6228018;28;20440;-77
2021/06/10 08:44:27;;;;;;;6.90;4.20;;;;;;;;;;6226360;28;20041;-77
2021/06/10 08:47:29;;;;;;;5.38;4.00;;;;;;;;;;6224211;28;20054;-77
2021/06/10 08:50:33;;;;;;;6.32;4.80;;;;;;;;;;6226467;28;20462;-77
2021/06/10 08:53:34;;;;;;;5.28;4.68;;;;;;;;;;6227349;28;20070;-78
2021/06/10 08:56:37;;;;;;;10.33;6.13;;;;;;;;;;6227806;28;20038;-77
2021/06/10 08:59:39;;;;;;;6.47;5.82;;;;;;;;;;6228014;28;20975;-77
2021/06/10 09:02:40;;;;;;;7.18;6.57;;;;;;;;;;6225486;28;20042;-77
2021/06/10 09:06:00;;;;;;;6.35;5.28;;;;;;;;;;6227940;28;20050;-77
2021/06/10 09:09:01;;;;;;;7.80;7.00;;;;;;;;;;6231180;28;20074;-76
2021/06/10 09:12:06;;;;;;;9.98;8.98;;;;;;;;;;6227851;28;20133;-76
2021/06/10 09:15:10;;;;;;;7.95;7.10;;;;;;;;;;6227023;28;20133;-75
2021/06/10 09:18:11;;;;;;;9.77;7.85;;;;;;;;;;6226546;28;20058;-76
2021/06/10 09:21:26;;;;;;;8.20;7.40;;;;;;;;;;6226548;28;20136;-76
2021/06/10 09:24:30;;;;;;;9.60;7.70;;;;;;;;;;6225636;28;20069;-76
2021/06/10 09:27:31;;;;;;;10.95;6.50;;;;;;;;;;6225209;28;20112;-76
2021/06/10 09:30:35;;;;;;;7.72;6.40;;;;;;;;;;6200931;28;20052;-76
2021/06/10 09:33:41;;;;;;;7.88;7.13;;;;;;;;;;6207342;28;20068;-76
2021/06/10 09:36:47;;;;;;;8.88;7.45;;;;;;;;;;6226552;28;20103;-76
2021/06/10 09:39:50;;;;;;;10.48;6.57;;;;;;;;;;6227017;28;20401;-76
2021/06/10 09:42:51;;;;;;;9.35;7.40;;;;;;;;;;6225752;28;20085;-75
2021/06/10 09:45:54;;;;;;;8.37;7.63;;;;;;;;;;6226803;28;20052;-76
2021/06/10 09:49:05;;;;;;;8.95;7.30;;;;;;;;;;6225240;28;20096;-77
2021/06/10 09:52:07;;;;;;;8.38;6.75;;;;;;;;;;6202167;28;20061;-76
2021/06/10 09:55:09;;;;;;;7.38;6.78;;;;;;;;;;6218557;28;20125;-76
2021/06/10 09:58:25;;;;;;;10.73;9.73;;;;;;;;;;6225068;28;20092;-78
2021/06/10 10:01:26;;;;;;;11.30;10.25;;;;;;;;;;6232288;28;20400;-79
2021/06/10 10:04:27;;;;;;;10.35;9.40;;;;;;;;;;6228967;28;20051;-77
2021/06/10 10:07:31;;;;;;;10.20;9.20;;;;;;;;;;6211073;28;20109;-77
2021/06/10 10:10:32;;;;;;;10.65;9.55;;;;;;;;;;6220390;28;20129;-76
2021/06/10 10:13:34;;;;;;;11.85;8.20;;;;;;;;;;6221637;28;20080;-76
2021/06/10 10:16:36;;;;;;;10.95;9.25;;;;;;;;;;6222259;28;20101;-77
2021/06/10 10:19:37;;;;;;;;;;;;;;;;;;6228350;28;20058;-79
2021/06/10 10:22:40;;;;;;;9.80;5.53;;;;;;;;;;6212741;28;19933;-74
2021/06/10 10:25:41;;;;;;;7.25;6.55;;;;;;;;;;6217831;28;20049;-80
2021/06/10 10:28:44;;;;;;;8.20;7.40;;;;;;;;;;6208439;28;20066;-75
2021/06/10 10:31:49;;;;;;;8.52;7.63;;;;;;;;;;6212416;28;20133;-76
2021/06/10 10:34:51;;;;;;;12.15;7.93;;;;;;;;;;6211600;28;20042;-75
2021/06/10 10:37:55;;;;;;;8.33;6.87;;;;;;;;;;6215649;28;20085;-75
2021/06/10 10:40:59;;;;;;;9.02;8.15;;;;;;;;;;6217187;28;20077;-75
2021/06/10 10:44:18;;;;;;;8.65;7.85;;;;;;;;;;6219621;28;20391;-77
2021/06/10 10:47:20;;;;;;;7.97;7.28;;;;;;;;;;6210447;28;20053;-75
2021/06/10 10:50:35;;;;;;;8.43;7.70;;;;;;;;;;6206780;28;20151;-75
2021/06/10 10:53:45;;;;;;;9.57;8.70;;;;;;;;;;6208323;28;20073;-76
2021/06/10 10:56:46;;;;;;;9.15;8.25;;;;;;;;;;6207894;28;20046;-74
2021/06/10 10:59:51;;;;;;;8.15;7.35;;;;;;;;;;6203570;28;20073;-74
2021/06/10 11:03:19;;;;;;;8.60;6.88;;;;;;;;;;6209322;28;20073;-77
2021/06/10 11:06:37;;;;;;;7.57;5.93;;;;;;;;;;6216923;28;20377;-75
2021/06/10 11:09:43;;;;;;;6.53;5.53;;;;;;;;;;6216782;28;20141;-75
2021/06/10 11:12:51;;;;;;;5.80;5.30;;;;;;;;;;6217330;28;20128;-77
2021/06/10 11:15:53;;;;;;;7.22;6.20;;;;;;;;;;6209208;28;20078;-75
2021/06/10 11:18:57;;;;;;;8.18;4.78;;;;;;;;;;6211770;28;20397;-72
2021/06/10 11:21:58;;;;;;;6.32;5.63;;;;;;;;;;6223421;28;20050;-72
2021/06/10 11:25:02;;;;;;;9.75;8.85;;;;;;;;;;6219795;28;20499;-72
2021/06/10 11:28:07;;;;;;;9.80;6.45;;;;;;;;;;6215841;28;20068;-73
2021/06/10 11:31:16;;;;;;;10.48;7.68;;;;;;;;;;6207916;28;20137;-74
2021/06/10 11:34:30;;;;;;;7.97;7.07;;;;;;;;;;6202489;28;20513;-74
2021/06/10 11:37:35;;;;;;;9.00;8.07;;;;;;;;;;6222217;28;20593;-74
2021/06/10 11:40:37;;;;;;;12.38;9.52;;;;;;;;;;6209842;28;20048;-73
2021/06/10 11:43:40;;;;;;;9.27;8.45;;;;;;;;;;6212400;28;20056;-73
2021/06/10 11:46:42;;;;;;;9.13;8.32;;;;;;;;;;6220820;28;20053;-73
2021/06/10 11:49:43;;;;;;;9.38;8.55;;;;;;;;;;6221072;28;20046;-73
2021/06/10 11:52:51;;;;;;;7.25;6.53;;;;;;;;;;6221147;28;20516;-75
2021/06/10 11:55:56;;;;;;;8.68;7.05;;;;;;;;;;6222777;28;20054;-74
2021/06/10 11:59:02;;;;;;;9.32;8.52;;;;;;;;;;6207138;28;20054;-75
2021/06/10 12:02:06;;;;;;;8.70;7.80;;;;;;;;;;6216564;28;20042;-75
2021/06/10 12:05:15;;;;;;;7.72;6.93;;;;;;;;;;6211144;28;20072;-75
2021/06/10 12:08:18;;;;;;;9.80;8.77;;;;;;;;;;6222761;28;20046;-73
2021/06/10 12:11:20;;;;;;;9.95;9.10;;;;;;;;;;6223890;28;20053;-74
2021/06/10 12:14:21;;;;;;;10.00;9.10;;;;;;;;;;6223495;28;20046;-75
2021/06/10 12:17:23;;;;;;;7.72;6.97;;;;;;;;;;6223204;28;20132;-75
2021/06/10 12:20:25;;;;;;;11.18;9.80;;;;;;;;;;6222779;28;20048;-75
2021/06/10 12:23:34;;;;;;;10.93;8.77;;;;;;;;;;6223991;28;20141;-73
2021/06/10 12:26:37;;;;;;;11.15;9.82;;;;;;;;;;6223921;28;20508;-75
2021/06/10 12:29:48;;;;;;;10.93;9.88;;;;;;;;;;6217545;28;20053;-75
2021/06/10 12:32:49;;;;;;;11.18;10.15;;;;;;;;;;6223155;28;20054;-74
2021/06/10 12:35:52;;;;;;;13.63;12.43;;;;;;;;;;6219127;28;20042;-74
2021/06/10 12:38:55;;;;;;;13.13;11.73;;;;;;;;;;6215120;28;20085;-75
2021/06/10 12:41:58;;;;;;;12.95;10.70;;;;;;;;;;6223464;28;20535;-74
2021/06/10 12:44:59;;;;;;;11.68;10.40;;;;;;;;;;6223805;28;20208;-75
2021/06/10 12:48:00;;;;;;;12.00;10.93;;;;;;;;;;6224607;28;20397;-75
2021/06/10 12:51:23;;;;;;;11.70;10.50;;;;;;;;;;6204857;28;20073;-74
2021/06/10 12:54:31;;;;;;;8.98;7.97;;;;;;;;;;6216215;28;20112;-75
2021/06/10 12:57:35;;;;;;;11.98;9.95;;;;;;;;;;6226077;28;20493;-74
2021/06/10 13:00:37;;;;;;;10.23;7.80;;;;;;;;;;6214077;28;20070;-75
2021/06/10 13:03:50;;;;;;;10.18;9.25;;;;;;;;;;6233356;28;20049;-75
2021/06/10 13:06:52;;;;;;;8.18;7.15;;;;;;;;;;6220486;28;20054;-75
2021/06/10 13:09:54;;;;;;;8.02;7.22;;;;;;;;;;6225979;28;20050;-77
2021/06/10 13:12:57;;;;;;;;;;;;;;;;;;6224977;28;20150;-75
2021/06/10 13:16:02;;;;;;;12.75;10.73;;;;;;;;;;6224081;28;19922;-74
2021/06/10 13:19:03;;;;;;;15.32;13.50;;;;;;;;;;6223917;28;20494;-75
2021/06/10 13:22:08;;;;;;;18.20;16.38;;;;;;;;;;6216632;28;20397;-75
2021/06/10 13:25:11;;;;;;;14.18;12.77;;;;;;;;;;6206129;28;20050;-75
2021/06/10 13:28:16;;;;;;;14.05;12.77;;;;;;;;;;6224017;28;20061;-75
2021/06/10 13:31:23;;;;;;;18.80;16.85;;;;;;;;;;6215636;28;20074;-73
2021/06/10 13:34:28;;;;;;;16.48;14.75;;;;;;;;;;6218958;28;20049;-75
2021/06/10 13:37:29;;;;;;;14.30;12.90;;;;;;;;;;6205353;28;20046;-74
2021/06/10 13:40:30;;;;;;;13.73;12.37;;;;;;;;;;6204225;28;20092;-74
2021/06/10 13:43:34;;;;;;;15.07;13.68;;;;;;;;;;6216924;28;20049;-75
2021/06/10 13:46:36;;;;;;;12.35;10.88;;;;;;;;;;6212762;28;20042;-74
2021/06/10 13:49:37;;;;;;;14.32;13.02;;;;;;;;;;6220147;28;20049;-74
2021/06/10 13:52:38;;;;;;;15.35;13.85;;;;;;;;;;6218887;28;20053;-74
2021/06/10 13:55:39;;;;;;;15.00;13.70;;;;;;;;;;6209260;28;20049;-74
2021/06/10 13:58:42;;;;;;;14.23;11.55;;;;;;;;;;6213327;28;20122;-75
2021/06/10 14:01:43;;;;;;;12.88;11.23;;;;;;;;;;6203418;28;20050;-76
2021/06/10 14:04:47;;;;;;;13.00;11.25;;;;;;;;;;6217638;28;20094;-75
2021/06/10 14:07:48;;;;;;;11.35;9.95;;;;;;;;;;6220858;28;20058;-75
2021/06/10 14:10:50;;;;;;;10.20;9.30;;;;;;;;;;6220228;28;20437;-75
2021/06/10 14:13:53;;;;;;;13.40;9.18;;;;;;;;;;6214530;28;20113;-76
2021/06/10 14:16:54;;;;;;;10.20;9.20;;;;;;;;;;6217290;28;20116;-75
2021/06/10 14:19:55;;;;;;;14.82;13.45;;;;;;;;;;6218707;28;20078;-75
2021/06/10 14:22:57;;;;;;;11.07;9.98;;;;;;;;;;6205950;28;20082;-75
2021/06/10 14:25:58;;;;;;;10.60;9.18;;;;;;;;;;6219962;28;20596;-75
2021/06/10 14:29:05;;;;;;;11.80;10.63;;;;;;;;;;6219833;28;20057;-79
2021/06/10 14:32:19;;;;;;;9.85;8.95;;;;;;;;;;6220669;28;20095;-78
2021/06/10 14:35:20;;;;;;;13.60;12.07;;;;;;;;;;6222332;28;20042;-75
2021/06/10 14:38:21;;;;;;;16.07;11.93;;;;;;;;;;6222162;28;20109;-75
2021/06/10 14:41:23;;;;;;;14.63;10.38;;;;;;;;;;6211894;28;20116;-75
2021/06/10 14:44:25;;;;;;;9.60;8.60;;;;;;;;;;6207913;28;20054;-75
2021/06/10 14:47:27;;;;;;;15.10;11.30;;;;;;;;;;6218977;28;20079;-75
2021/06/10 14:50:28;;;;;;;8.55;7.75;;;;;;;;;;6211800;28;20053;-75
2021/06/10 14:53:29;;;;;;;9.52;8.25;;;;;;;;;;6231088;28;20081;-76
2021/06/10 14:56:30;;;;;;;9.63;8.50;;;;;;;;;;6224278;28;20068;-75
2021/06/10 14:59:33;;;;;;;8.88;7.65;;;;;;;;;;6224402;28;20052;-75
2021/06/10 15:02:34;;;;;;;10.18;9.15;;;;;;;;;;6215508;28;20492;-76
2021/06/10 15:05:35;;;;;;;13.00;11.60;;;;;;;;;;6233701;28;20037;-75
2021/06/10 15:08:36;;;;;;;11.60;10.48;;;;;;;;;;6224114;28;20181;-75
2021/06/10 15:11:38;;;;;;;11.30;9.98;;;;;;;;;;6221062;28;20429;-75
2021/06/10 15:14:40;;;;;;;10.50;7.40;;;;;;;;;;6221342;28;20536;-75
2021/06/10 15:17:42;;;;;;;9.27;8.38;;;;;;;;;;6224827;28;20046;-75
2021/06/10 15:20:43;;;;;;;9.48;8.50;;;;;;;;;;6224886;28;20046;-75
2021/06/10 15:23:45;;;;;;;8.82;8.02;;;;;;;;;;6224706;28;20081;-75
2021/06/10 15:26:46;;;;;;;11.52;8.63;;;;;;;;;;6203862;28;20058;-75
2021/06/10 15:29:49;;;;;;;14.55;11.15;;;;;;;;;;6213898;28;20430;-75
2021/06/10 15:32:50;;;;;;;11.40;9.50;;;;;;;;;;6222413;28;20124;-75
2021/06/10 15:35:51;;;;;;;11.73;10.10;;;;;;;;;;6216768;28;20181;-75
2021/06/10 15:38:53;;;;;;;10.20;9.07;;;;;;;;;;6216273;28;20136;-75
2021/06/10 15:41:54;;;;;;;10.40;9.38;;;;;;;;;;6218074;28;20078;-75
2021/06/10 15:44:56;;;;;;;9.98;7.22;;;;;;;;;;6222009;28;20045;-75
2021/06/10 15:47:57;;;;;;;10.40;9.30;;;;;;;;;;6230718;28;20099;-79
2021/06/10 15:51:00;;;;;;;14.73;9.02;;;;;;;;;;6216908;28;20123;-75
2021/06/10 15:54:01;;;;;;;10.48;8.23;;;;;;;;;;6223532;28;20045;-78
2021/06/10 15:57:03;;;;;;;12.25;11.05;;;;;;;;;;6223442;28;20057;-77
2021/06/10 16:00:07;;;;;;;13.10;11.77;;;;;;;;;;6208818;28;20136;-76
2021/06/10 16:03:08;;;;;;;11.85;8.93;;;;;;;;;;6208364;28;20042;-75
2021/06/10 16:06:09;;;;;;;12.52;10.18;;;;;;;;;;6222945;28;20124;-76
2021/06/10 16:09:10;;;;;;;13.68;12.27;;;;;;;;;;6215464;28;20053;-75
2021/06/10 16:12:13;;;;;;;14.20;12.77;;;;;;;;;;6216017;28;20104;-76
2021/06/10 16:15:17;;;;;;;16.73;12.30;;;;;;;;;;6223182;28;20049;-76
2021/06/10 16:18:19;;;;;;;13.90;12.50;;;;;;;;;;6218249;28;20089;-75
2021/06/10 16:21:20;;;;;;;16.00;13.98;;;;;;;;;;6216401;28;20066;-75
2021/06/10 16:24:21;;;;;;;15.48;13.98;;;;;;;;;;6215604;28;20069;-76
2021/06/10 16:27:22;;;;;;;13.75;12.35;;;;;;;;;;6223993;28;20465;-76
2021/06/10 16:30:27;;;;;;;14.75;13.23;;;;;;;;;;6211687;28;20085;-76
2021/06/10 16:33:28;;;;;;;14.65;12.70;;;;;;;;;;6218802;28;20042;-78
2021/06/10 16:36:29;;;;;;;15.13;12.80;;;;;;;;;;6224489;28;20038;-76
2021/06/10 16:39:31;;;;;;;13.68;12.20;;;;;;;;;;6213527;28;20081;-75
2021/06/10 16:42:32;;;;;;;11.63;10.43;;;;;;;;;;6213584;28;20152;-76
2021/06/10 16:45:34;;;;;;;14.85;10.55;;;;;;;;;;6226400;28;20373;-76
2021/06/10 16:48:36;;;;;;;11.82;10.50;;;;;;;;;;6224324;28;20615;-76
2021/06/10 16:51:37;;;;;;;15.68;13.57;;;;;;;;;;6221357;28;20331;-76
2021/06/10 16:54:38;;;;;;;13.73;12.32;;;;;;;;;;6214443;28;20076;-76
2021/06/10 16:57:40;;;;;;;13.88;12.50;;;;;;;;;;6223194;28;20054;-76
2021/06/10 17:00:46;;;;;;;14.68;12.70;;;;;;;;;;6221133;28;20088;-76
2021/06/10 17:04:00;;;;;;;13.18;10.25;;;;;;;;;;6214537;28;20050;-75
2021/06/10 17:07:02;;;;;;;12.38;10.07;;;;;;;;;;6220467;28;20050;-75
2021/06/10 17:10:04;;;;;;;15.07;10.68;;;;;;;;;;6223908;28;20049;-76
2021/06/10 17:13:05;;;;;;;13.95;10.57;;;;;;;;;;6230026;28;20080;-75
2021/06/10 17:16:07;;;;;;;10.55;9.45;;;;;;;;;;6214478;28;20541;-77
2021/06/10 17:19:11;;;;;;;12.55;11.25;;;;;;;;;;6222277;28;20188;-76
2021/06/10 17:22:12;;;;;;;12.48;11.00;;;;;;;;;;6214204;28;20042;-76
2021/06/10 17:25:14;;;;;;;13.88;10.70;;;;;;;;;;6226748;28;20161;-76
2021/06/10 17:28:16;;;;;;;11.23;9.93;;;;;;;;;;6213674;28;20081;-76
2021/06/10 17:31:18;;;;;;;11.45;9.93;;;;;;;;;;6213963;28;20065;-76
2021/06/10 17:34:20;;;;;;;11.82;10.63;;;;;;;;;;6212573;28;20054;-76
2021/06/10 17:37:21;;;;;;;10.60;9.50;;;;;;;;;;6215686;28;20046;-76
2021/06/10 17:40:22;;;;;;;10.77;9.68;;;;;;;;;;6224254;28;20133;-75
2021/06/10 17:43:23;;;;;;;13.60;10.55;;;;;;;;;;6224652;28;20046;-76
2021/06/10 17:46:26;;;;;;;12.48;11.13;;;;;;;;;;6211930;28;20552;-75
2021/06/10 17:49:27;;;;;;;11.07;9.95;;;;;;;;;;6214838;28;20061;-75
2021/06/10 17:52:28;;;;;;;12.57;11.13;;;;;;;;;;6220796;28;20046;-75
2021/06/10 17:55:30;;;;;;;13.10;9.23;;;;;;;;;;6218234;28;20405;-75
2021/06/10 17:58:31;;;;;;;11.23;10.00;;;;;;;;;;6209086;28;20085;-77
2021/06/10 18:01:34;;;;;;;12.63;10.57;;;;;;;;;;6218215;28;20112;-75
2021/06/10 18:04:35;;;;;;;10.60;9.45;;;;;;;;;;6205827;28;20101;-75
2021/06/10 18:07:36;;;;;;;13.35;10.35;;;;;;;;;;6216325;28;20043;-75
2021/06/10 18:10:37;;;;;;;12.07;10.30;;;;;;;;;;6210482;28;20061;-75
2021/06/10 18:13:45;;;;;;;11.93;9.65;;;;;;;;;;6212305;28;20633;-76
2021/06/10 18:16:47;;;;;;;11.93;10.45;;;;;;;;;;6210114;28;20054;-76
2021/06/10 18:19:55;;;;;;;10.82;9.57;;;;;;;;;;6205287;28;20062;-76
2021/06/10 18:22:59;;;;;;;14.10;9.57;;;;;;;;;;6213001;28;20539;-76
2021/06/10 18:26:18;;;;;;;14.20;9.65;;;;;;;;;;6214457;28;20055;-76
2021/06/10 18:29:37;;;;;;;16.35;10.85;;;;;;;;;;6214227;28;20588;-75
2021/06/10 18:32:49;;;;;;;11.15;9.65;;;;;;;;;;6217032;28;20101;-75
2021/06/10 18:35:50;;;;;;;12.32;11.02;;;;;;;;;;6196235;28;20049;-76
2021/06/10 18:38:54;;;;;;;13.38;10.95;;;;;;;;;;6226527;28;20132;-74
2021/06/10 18:42:02;;;;;;;11.50;9.77;;;;;;;;;;6216348;28;20405;-77
2021/06/10 18:45:21;;;;;;;11.80;10.52;;;;;;;;;;6217721;28;20389;-76
2021/06/10 18:48:27;;;;;;;13.02;9.93;;;;;;;;;;6204840;28;20097;-76
2021/06/10 18:51:44;;;;;;;13.50;11.32;;;;;;;;;;6156540;28;20111;-76
2021/06/10 18:54:45;;;;;;;21.88;14.55;;;;;;;;;;6207366;28;20049;-74
2021/06/10 18:57:46;;;;;;;16.58;14.60;;;;;;;;;;6220612;28;20134;-75
2021/06/10 19:00:48;;;;;;;17.77;14.10;;;;;;;;;;6216740;28;20144;-76
2021/06/10 19:04:07;;;;;;;15.32;13.73;;;;;;;;;;6219632;28;20054;-76
2021/06/10 19:07:08;;;;;;;14.98;13.40;;;;;;;;;;6221148;28;20045;-76
2021/06/10 19:10:11;;;;;;;17.13;13.65;;;;;;;;;;6213914;28;20081;-76
2021/06/10 19:13:12;;;;;;;16.83;12.98;;;;;;;;;;6221303;28;20172;-76
2021/06/10 19:16:13;;;;;;;17.00;13.15;;;;;;;;;;6220191;28;20049;-76
2021/06/10 19:19:16;;;;;;;16.00;12.63;;;;;;;;;;6213046;28;20050;-76
2021/06/10 19:22:19;;;;;;;14.85;13.23;;;;;;;;;;6223661;28;20062;-76
2021/06/10 19:25:22;;;;;;;16.60;12.95;;;;;;;;;;6227071;28;20469;-76
2021/06/10 19:28:59;;;;;;;18.08;13.77;;;;;;;;;;6222315;28;20046;-76
2021/06/10 19:32:00;;;;;;;20.08;14.63;;;;;;;;;;6198522;28;20104;-76
2021/06/10 19:35:03;;;;;;;18.67;15.38;;;;;;;;;;6153217;28;20089;-76
2021/06/10 19:38:05;;;;;;;15.68;13.13;;;;;;;;;;6169767;28;20051;-75
2021/06/10 19:41:06;;;;;;;16.92;13.90;;;;;;;;;;6184606;28;20447;-76
2021/06/10 19:44:07;;;;;;;16.17;14.57;;;;;;;;;;6188965;28;20166;-77
2021/06/10 19:47:12;;;;;;;17.42;14.57;;;;;;;;;;6198042;28;20050;-76
2021/06/10 19:50:14;;;;;;;17.05;14.57;;;;;;;;;;6190225;28;20046;-75
2021/06/10 19:53:16;;;;;;;18.35;14.40;;;;;;;;;;6198375;28;20110;-76
2021/06/10 19:56:17;;;;;;;16.67;14.13;;;;;;;;;;6187279;28;20062;-76
2021/06/10 19:59:18;;;;;;;16.98;15.15;;;;;;;;;;6212064;28;20074;-76
2021/06/10 20:02:20;;;;;;;16.70;14.90;;;;;;;;;;6198589;28;20077;-76
2021/06/10 20:05:28;;;;;;;16.48;14.55;;;;;;;;;;6199894;28;20130;-76
2021/06/10 20:08:36;;;;;;;18.55;15.18;;;;;;;;;;6198639;28;20093;-76
2021/06/10 20:11:37;;;;;;;17.58;14.65;;;;;;;;;;6198247;28;20047;-76
2021/06/10 20:14:39;;;;;;;19.75;16.05;;;;;;;;;;6194480;28;20082;-78
2021/06/10 20:17:56;;;;;;;17.92;15.60;;;;;;;;;;6192747;28;20058;-77
2021/06/10 20:25:07;;;;;;;20.60;16.63;;;;;;;;;;6203044;28;20121;-76
2021/06/10 20:31:27;;;;;;;19.33;15.73;;;;;;;;;;6203846;28;20042;-76
2021/06/10 20:34:28;;;;;;;19.23;17.23;;;;;;;;;;6204016;28;20474;-76
2021/06/10 20:37:30;;;;;;;17.40;15.63;;;;;;;;;;6203454;28;20038;-76
2021/06/10 20:40:35;;;;;;;20.65;18.05;;;;;;;;;;6203049;28;20053;-76
2021/06/10 20:43:36;;;;;;;22.67;17.25;;;;;;;;;;6203985;28;20046;-76
2021/06/10 20:46:37;;;;;;;22.33;19.52;;;;;;;;;;6203606;28;20058;-76
2021/06/10 20:49:38;;;;;;;20.92;17.58;;;;;;;;;;6201807;28;20062;-76
2021/06/10 20:52:39;;;;;;;20.05;17.95;;;;;;;;;;6202168;28;20062;-76
2021/06/10 20:55:43;;;;;;;19.73;17.73;;;;;;;;;;6203245;28;20042;-76
2021/06/10 20:58:44;;;;;;;20.73;18.52;;;;;;;;;;6203548;28;20193;-76
2021/06/10 21:01:46;;;;;;;20.15;18.00;;;;;;;;;;6203409;28;20120;-75
2021/06/10 21:04:47;;;;;;;19.52;17.33;;;;;;;;;;6202715;28;20379;-75
2021/06/10 21:07:48;;;;;;;20.90;18.75;;;;;;;;;;6201368;28;20082;-75
2021/06/10 21:10:51;;;;;;;21.75;19.38;;;;;;;;;;6202404;28;20141;-75
2021/06/10 21:13:52;;;;;;;25.27;21.00;;;;;;;;;;6202840;28;20074;-75